Forecasts are only available for sites displaying the forecast symbol.

Scroll for more >

River gauges, storages, and weirs in the Murray–Darling Basin

Type Locationsort descending River Water level Flow Volume Release Water temp Salinity Rainfall
River Gauge Albury (Union Bridge) Murray 1.93 m 10/12/2018 20:45 Not measured Not measured Not measured 20.4°C 10/12/2018 20:45 41.9 μS/cm 10/12/2018 20:45 Not measured Full data
River Gauge Balranald Murrumbidgee 0.65 m 10/12/2018 20:45 331 ML/Day 10/12/2018 20:45 Not measured Not measured 25.3°C 10/12/2018 20:45 100.6 μS/cm 10/12/2018 20:45 Not measured Full data
River Gauge Bandiana Kiewa 1 m 10/12/2018 20:45 490 ML/Day 10/12/2018 20:45 Not measured Not measured 25.2°C 10/12/2018 20:45 31.9 μS/cm 10/12/2018 20:45 Not measured Full data
River Gauge Barmah Choke Murray 3.17 m 10/12/2018 20:45 10386 ML/Day 10/12/2018 20:45 Not measured Not measured Not measured Not measured Not measured Full data
River Gauge Biggara Murray 0.54 m 10/12/2018 20:45 701 ML/Day 10/12/2018 20:45 Not measured Not measured 22.6°C 10/12/2018 20:45 36.8 μS/cm 10/12/2018 20:45 4.6 mm 10/12/2018 9:00 Full data
River Gauge Bringenbrong Bridge Murray 1.01 m 10/12/2018 20:45 1153 ML/Day 10/12/2018 20:45 Not measured Not measured Not measured Not measured Not measured Full data
River Gauge Burtundy Darling 0.63 m 10/12/2018 20:45 17 ML/Day 24/09/2018 14:45 Not measured Not measured 28.7°C 10/12/2018 20:45 891.6 μS/cm 10/12/2018 20:45 Not measured Full data
River Gauge Colemans Mitta 2.63 m 10/12/2018 21:30 8167 ML/Day 10/12/2018 21:30 Not measured Not measured 12.0°C 10/12/2018 20:45 45.8 μS/cm 10/12/2018 20:45 Not measured Full data
River Gauge Colignan Murray 2.45 m 10/12/2018 20:45 10108 ML/Day 10/12/2018 20:45 Not measured Not measured 26.1°C 10/12/2018 20:45 66.9 μS/cm 10/12/2018 20:45 Not measured Full data
River Gauge Corowa Murray 3.26 m 10/12/2018 20:45 16105 ML/Day 10/12/2018 20:45 Not measured Not measured 22.1°C 10/12/2018 20:45 42.0 μS/cm 10/12/2018 20:45 Not measured Full data
Storage Dartmouth Dam Mitta 468.75 m 10/12/2018 21:30 Not measured 2824 GL 10/12/2018 21:30 Not measured Not measured Not measured Not measured Full data
River Gauge Doctors Point Murray 2.88 m 10/12/2018 19:45 13731 ML/Day 10/12/2018 19:45 Not measured Not measured 20.8°C 10/12/2018 16:00 48.0 μS/cm 10/12/2018 16:00 Not measured Full data
River Gauge Echuca Wharf Murray 87.48 m 10/12/2018 19:45 Not measured Not measured Not measured Not measured Not measured Not measured Full data
River Gauge Edward Escape Wakool 0.59 m 10/12/2018 20:45 405 ML/Day 10/12/2018 20:45 Not measured Not measured 25.2°C 10/12/2018 20:45 60.8 μS/cm 10/12/2018 20:45 Not measured Full data
River Gauge Edward River Offtake Murray 2.4 m 10/12/2018 20:45 1555 ML/Day 10/12/2018 20:45 Not measured Not measured 25.5°C 10/12/2018 19:45 38.9 μS/cm 10/12/2018 19:45 Not measured Full data
Weirs Euston Weir Downstream Murray 43.86 m 10/12/2018 20:45 11047 ML/Day 10/12/2018 20:45 Not measured Not measured 25.4°C 10/12/2018 20:45 60.0 μS/cm 10/12/2018 20:45 Not measured Full data
Weirs Euston Weir Upstream Murray 47.56 m 10/12/2018 8:45 Not measured 36 GL 10/12/2018 7:45 Not measured Not measured Not measured 0.0 mm 9/12/2018 9:00 Full data
River Gauge Flow to South Australia Murray Not measured Not measured Not measured 7501.7 ML/d10/12/2018 7:45 Not measured Not measured Not measured Full data
River Gauge Frenchman Creek Murray 27.35 m 10/12/2018 7:45 Not measured Not measured 1444.0 ML/d10/12/2018 7:45 Not measured Not measured Not measured Full data
River Gauge Gulpa Creek Offtake Murray 2.47 m 10/12/2018 20:45 324 ML/Day 10/12/2018 20:45 Not measured Not measured Not measured Not measured Not measured Full data
River Gauge Hinnomunjie Mitta 0.69 m 10/12/2018 20:45 463 ML/Day 10/12/2018 20:45 Not measured Not measured 21.9°C 10/12/2018 20:45 29.9 μS/cm 10/12/2018 20:45 6.2 mm 10/12/2018 9:00 Full data
Storage Hume Dam Murray 180.77 m 10/12/2018 20:45 Not measured 1220 GL 10/12/2018 20:45 14690.0 ML/d10/12/2018 8:00 Not measured Not measured 4.2 mm 10/12/2018 9:00 Full data
River Gauge Jingellic Murray 1.32 m 10/12/2018 20:45 2003 ML/Day 10/12/2018 20:45 Not measured Not measured 23.4°C 10/12/2018 20:45 34.2 μS/cm 10/12/2018 20:45 5.4 mm 10/12/2018 9:00 Full data
River Gauge Kerang Loddon 0.35 m 10/12/2018 20:45 139 ML/Day 10/12/2018 20:45 Not measured Not measured 24.8°C 10/12/2018 20:45 88.2 μS/cm 10/12/2018 20:45 Not measured Full data
River Gauge Lake Albert Murray 0.72 m 10/12/2018 5:45 Not measured 267 GL 10/12/2018 5:45 Not measured Not measured Not measured Not measured Full data
River Gauge Lake Alexandrina Murray 0.68 m 10/12/2018 5:45 Not measured 1568 GL 10/12/2018 5:45 Not measured Not measured 970.1 μS/cm 10/12/2018 19:45 Not measured Full data
Storage Lake Victoria Murray 25.94 m 10/12/2018 19:45 Not measured 552 GL 10/12/2018 19:45 Not measured 21.3°C 10/12/2018 19:45 153.1 μS/cm 10/12/2018 19:45 Not measured Full data
Weirs Lock 1 Downstream Murray 0.85 m 10/12/2018 19:45 Not measured Not measured 3473.3 ML/d10/12/2018 7:45 Not measured Not measured Not measured Full data
Weirs Lock 1 Upstream Murray 3.2 m 10/12/2018 19:45 Not measured Not measured Not measured 22.5°C 10/12/2018 19:45 280.7 μS/cm 10/12/2018 19:45 Not measured Full data
Weirs Lock 2 Downstream Murray 3.38 m 10/12/2018 19:45 Not measured Not measured Not measured Not measured Not measured Not measured Full data
Weirs Lock 2 Upstream Murray 6.13 m 10/12/2018 19:45 Not measured Not measured Not measured 23.8°C 10/12/2018 19:45 264.1 μS/cm 10/12/2018 19:45 Not measured Full data
Weirs Lock 3 Downstream Murray 6.31 m 10/12/2018 19:45 Not measured Not measured Not measured Not measured Not measured Not measured Full data
Weirs Lock 3 Upstream Murray 9.81 m 10/12/2018 19:45 Not measured Not measured Not measured Not measured Not measured Not measured Full data
Weirs Lock 4 Downstream Murray 10.48 m 10/12/2018 19:45 Not measured Not measured Not measured Not measured Not measured Not measured Full data
Weirs Lock 4 Upstream Murray 13.23 m 10/12/2018 19:45 Not measured Not measured Not measured Not measured Not measured Not measured Full data
Weirs Lock 5 Downstream Murray 13.4 m 10/12/2018 19:45 Not measured Not measured Not measured Not measured Not measured Not measured Full data
Weirs Lock 5 Upstream Murray 16.32 m 10/12/2018 19:45 Not measured Not measured Not measured 24.9°C 10/12/2018 19:45 131.3 μS/cm 10/12/2018 19:45 Not measured Full data
Weirs Lock 6 Downstream Murray 16.43 m 10/12/2018 19:45 Not measured Not measured Not measured Not measured Not measured Not measured Full data
Weirs Lock 6 Upstream Murray 19.26 m 10/12/2018 19:45 Not measured Not measured Not measured 24.5°C 10/12/2018 19:45 119.1 μS/cm 10/12/2018 19:45 Not measured Full data
Weirs Lock 7 Downstream Murray 20.47 m 10/12/2018 19:45 Not measured Not measured Not measured Not measured Not measured Not measured Full data
Weirs Lock 7 Upstream Murray 22.3 m 10/12/2018 19:45 Not measured Not measured Not measured 25.6°C 10/12/2018 19:45 85.2 μS/cm 10/12/2018 19:45 Not measured Full data
Weirs Lock 8 Upstream Murray 24.13 m 10/12/2018 19:45 Not measured Not measured Not measured 25.6°C 10/12/2018 19:45 80.8 μS/cm 10/12/2018 19:45 Not measured Full data
Weirs Lock 9 Downstream Murray 24.26 m 10/12/2018 19:45 Not measured Not measured Not measured Not measured Not measured Not measured Full data
Weirs Lock 9 Upstream Murray 27.35 m 10/12/2018 19:45 Not measured Not measured Not measured 25.8°C 10/12/2018 19:45 88.5 μS/cm 10/12/2018 19:45 Not measured Full data
River Gauge McCoy Bridge Goulburn 1.39 m 10/12/2018 20:45 791 ML/Day 10/12/2018 20:45 Not measured Not measured 25.9°C 10/12/2018 20:45 80.0 μS/cm 10/12/2018 20:45 Not measured Full data
Storage Menindee Lakes Darling Not measured Not measured 90 GL 10/12/2018 7:45 Not measured Not measured Not measured Not measured Full data
Weirs Mildura Weir downstream Murray 31.18 m 10/12/2018 20:45 Not measured Not measured Not measured 25.8°C 10/12/2018 20:45 78.9 μS/cm 10/12/2018 20:45 Not measured Full data
River Gauge Morgan Downstream Murray Not measured Not measured Not measured 2533.8 ML/d10/12/2018 19:45 Not measured 298.4 μS/cm 10/12/2018 18:45 Not measured Full data
River Gauge Mulwala Canal Murray Not measured Not measured Not measured 1371.6 ML/d10/12/2018 7:45 Not measured Not measured Not measured Full data
River Gauge Mundoo Barrage Murray 0.68 m 10/12/2018 7:45 Not measured Not measured Not measured Not measured Not measured Not measured Full data
River Gauge Murray Bridge Murray 0.74 m 10/12/2018 19:45 Not measured Not measured Not measured 21.0°C 10/12/2018 19:45 408.8 μS/cm 10/12/2018 19:45 Not measured Full data
River Gauge Peechelba Ovens 126.36 m 10/12/2018 20:45 404 ML/Day 10/12/2018 20:45 Not measured Not measured 26.6°C 10/12/2018 20:45 49.7 μS/cm 10/12/2018 20:45 Not measured Full data
River Gauge Pinegrove Murray 1.17 m 10/12/2018 20:45 300 ML/Day 10/12/2018 20:45 Not measured Not measured 24.0°C 10/12/2018 20:45 46.4 μS/cm 10/12/2018 20:45 5.4 mm 10/12/2018 9:00 Full data
River Gauge Redcliffs Murray Not measured Not measured Not measured Not measured Not measured 81.3 μS/cm 10/12/2018 20:45 Not measured Full data
River Gauge Rochester Campaspe 1.71 m 10/12/2018 20:45 79 ML/Day 10/12/2018 20:45 Not measured Not measured 24.0°C 10/12/2018 20:45 560.8 μS/cm 10/12/2018 20:45 5.0 mm 10/12/2018 9:00 Full data
River Gauge Rufus River Murray 20.63 m 10/12/2018 7:45 Not measured Not measured 1868.9 ML/d10/12/2018 7:45 Not measured 188.9 μS/cm 10/12/2018 18:45 Not measured Full data
Weirs Steven's Weir Downstream Wakool 2.41 m 10/12/2018 20:45 2661 ML/Day 10/12/2018 20:45 Not measured Not measured 26.1°C 10/12/2018 20:45 38.1 μS/cm 10/12/2018 20:45 Not measured Full data
Weirs Steven's Weir Upstream Wakool 4.44 m 10/12/2018 20:45 Not measured Not measured Not measured Not measured Not measured Not measured Full data
River Gauge Stoney Crossing Murray 1.72 m 10/12/2018 20:45 1273 ML/Day 10/12/2018 20:45 Not measured 898.1 ML/d10/12/2018 7:45 26.5°C 10/12/2018 20:45 95.5 μS/cm 10/12/2018 20:45 Not measured Full data
River Gauge Swan Hill Murray 1.74 m 10/12/2018 20:45 9641 ML/Day 10/12/2018 20:45 Not measured Not measured 26.1°C 10/12/2018 20:45 74.1 μS/cm 10/12/2018 20:45 Not measured Full data
River Gauge Tallandoon Mitta 3.16 m 10/12/2018 20:45 8149 ML/Day 10/12/2018 20:45 Not measured Not measured 12.9°C 10/12/2018 20:45 33.6 μS/cm 10/12/2018 20:45 Not measured Full data
River Gauge Tauwitchere Barrage Murray 0.61 m 10/12/2018 19:45 Not measured Not measured Not measured Not measured Not measured Not measured Full data
River Gauge Tocumwal Murray 2.85 m 10/12/2018 20:45 13913 ML/Day 10/12/2018 20:45 Not measured Not measured 24.9°C 10/12/2018 20:45 43.1 μS/cm 10/12/2018 20:45 Not measured Full data
River Gauge Torrumbarry Headworks Murray 84.85 m 10/12/2018 20:45 Not measured Not measured 1678.8 ML/d10/12/2018 20:45 Not measured Not measured Not measured Full data
Weirs Torrumbarry Weir Downstream Murray 3.04 m 10/12/2018 20:45 9421 ML/Day 10/12/2018 20:45 Not measured Not measured 25.7°C 10/12/2018 20:45 50.5 μS/cm 10/12/2018 20:45 Not measured Full data
Weirs Torrumbarry Weir Upstream Murray 86.05 m 10/12/2018 20:30 Not measured 37 GL 9/12/2018 7:45 Not measured 24.7°C 9/12/2018 7:45 50.1 μS/cm 10/12/2018 18:45 0.0 mm 8/12/2018 9:00 Full data
River Gauge Wakool Canal Wakool 0.47 m 10/12/2018 20:45 Not measured Not measured 95.1 ML/d10/12/2018 8:45 Not measured Not measured Not measured Full data
River Gauge Wakool Junction Murray 3.95 m 10/12/2018 20:45 12004 ML/Day 10/12/2018 20:45 Not measured Not measured 25.6°C 10/12/2018 20:45 62.3 μS/cm 10/12/2018 20:45 Not measured Full data
River Gauge Weir 32 Upstream Darling 1.42 m 10/12/2018 20:45 314 ML/Day 10/12/2018 20:45 Not measured Not measured 26.6°C 10/12/2018 20:45 815.1 μS/cm 10/12/2018 20:45 Not measured Full data
Weirs Wentworth Weir Murray 27.73 m 10/12/2018 20:45 Not measured Not measured 7780.2 ML/d10/12/2018 8:45 Not measured 77.0 μS/cm 10/12/2018 7:45 0.0 mm 9/12/2018 9:00 Full data
River Gauge Wilcania Darling -0.26 m 10/12/2018 20:45 1 ML/Day 10/12/2018 20:45 Not measured Not measured 26.4°C 10/12/2018 21:00 0.0 μS/cm 10/12/2018 20:45 Not measured Full data
River Gauge Yarrawonga Main Channel Murray 123.53 m 10/12/2018 20:45 Not measured Not measured 659.9 ML/d10/12/2018 20:45 Not measured Not measured Not measured Full data
Weirs Yarrawonga Weir Downstream Murray 2.08 m 10/12/2018 20:45 13363 ML/Day 10/12/2018 20:45 Not measured Not measured 23.2°C 10/12/2018 20:45 124.3 μS/cm 10/12/2018 20:45 Not measured Full data
Weirs Yarrawonga Weir Upstream Murray 124.75 m 10/12/2018 20:45 Not measured Not measured Not measured Not measured Not measured 4.0 mm 10/12/2018 9:00 Full data